Drakesburg, Ohio
Current Conditions -  °F | °C
As of 9:58 PM on Saturday 25 Oct 2014 (Local Time) from KPOV Reporting Station
Clear Clear  
Wind Chill: 59°   Ceiling: Unl
Heat Index: 59°   Visibility: 10mi
Dew Point: 32°   Wind: 17mph
Humidity: 36%   Direction: 280°W
Pressure: 29.78"   Gusts: 26mph
Location:  41.2385°N, 81.0761°W
Report Text: KPOV 260158Z AUTO 28015G23KT 10SM CLR 15/00 A2978 RMK AO2 T01520000
Loading
Personal Weather Stations






























Interactive Weather Map
Tropical Storm Tracking
New forecast layout! Learn more

10-Day Weather Forecast

Advertisements
Track Severe Weather on mobile